sensor_id;sensor_type;location;lat;lon;timestamp;temperature;humidity
7498;DHT22;3790;48.806;9.140;2023-05-17T00:00:16;8.10;99.90
7498;DHT22;3790;48.806;9.140;2023-05-17T00:05:16;8.00;99.90
7498;DHT22;3790;48.806;9.140;2023-05-17T00:10:17;7.80;99.90
7498;DHT22;3790;48.806;9.140;2023-05-17T00:15:17;7.90;99.90
7498;DHT22;3790;48.806;9.140;2023-05-17T00:20:18;7.80;99.90
7498;DHT22;3790;48.806;9.140;2023-05-17T00:25:18;7.80;99.90
7498;DHT22;3790;48.806;9.140;2023-05-17T00:30:19;7.80;99.90
7498;DHT22;3790;48.806;9.140;2023-05-17T00:35:20;7.70;99.90
7498;DHT22;3790;48.806;9.140;2023-05-17T00:40:21;7.70;99.90
7498;DHT22;3790;48.806;9.140;2023-05-17T00:45:24;7.60;99.90
7498;DHT22;3790;48.806;9.140;2023-05-17T00:50:25;7.60;99.90
7498;DHT22;3790;48.806;9.140;2023-05-17T00:55:26;7.60;99.90
7498;DHT22;3790;48.806;9.140;2023-05-17T01:00:27;7.60;99.90
7498;DHT22;3790;48.806;9.140;2023-05-17T01:05:28;7.70;99.90
7498;DHT22;3790;48.806;9.140;2023-05-17T01:10:43;7.90;99.90
7498;DHT22;3790;48.806;9.140;2023-05-17T01:15:59;7.80;99.90
7498;DHT22;3790;48.806;9.140;2023-05-17T01:21:16;7.80;99.90
7498;DHT22;3790;48.806;9.140;2023-05-17T01:26:42;7.70;99.90
7498;DHT22;3790;48.806;9.140;2023-05-17T01:31:45;7.60;99.90
7498;DHT22;3790;48.806;9.140;2023-05-17T01:36:46;7.30;99.90
7498;DHT22;3790;48.806;9.140;2023-05-17T01:47:04;7.10;99.90
7498;DHT22;3790;48.806;9.140;2023-05-17T01:52:21;7.10;99.90
7498;DHT22;3790;48.806;9.140;2023-05-17T01:57:35;6.90;99.90
7498;DHT22;3790;48.806;9.140;2023-05-17T02:02:36;7.00;99.90
7498;DHT22;3790;48.806;9.140;2023-05-17T02:07:37;7.00;99.90
7498;DHT22;3790;48.806;9.140;2023-05-17T02:12:38;7.00;99.90
7498;DHT22;3790;48.806;9.140;2023-05-17T02:17:39;7.00;99.90
7498;DHT22;3790;48.806;9.140;2023-05-17T02:22:40;7.00;99.90
7498;DHT22;3790;48.806;9.140;2023-05-17T02:27:40;7.10;99.90
7498;DHT22;3790;48.806;9.140;2023-05-17T02:32:41;7.00;99.90
7498;DHT22;3790;48.806;9.140;2023-05-17T02:37:41;7.00;99.90
7498;DHT22;3790;48.806;9.140;2023-05-17T02:42:42;6.90;99.90
7498;DHT22;3790;48.806;9.140;2023-05-17T02:47:45;6.80;99.90
7498;DHT22;3790;48.806;9.140;2023-05-17T02:52:45;6.70;99.90
7498;DHT22;3790;48.806;9.140;2023-05-17T02:57:46;6.80;99.90
7498;DHT22;3790;48.806;9.140;2023-05-17T03:02:46;6.60;99.90
7498;DHT22;3790;48.806;9.140;2023-05-17T03:07:47;6.70;99.90
7498;DHT22;3790;48.806;9.140;2023-05-17T03:12:47;6.60;99.90
7498;DHT22;3790;48.806;9.140;2023-05-17T03:17:48;6.40;99.90
7498;DHT22;3790;48.806;9.140;2023-05-17T03:22:48;6.50;99.90
7498;DHT22;3790;48.806;9.140;2023-05-17T03:27:49;6.60;99.90
7498;DHT22;3790;48.806;9.140;2023-05-17T03:32:49;6.50;99.90
7498;DHT22;3790;48.806;9.140;2023-05-17T03:37:50;6.50;99.90
7498;DHT22;3790;48.806;9.140;2023-05-17T03:42:50;6.40;99.90
7498;DHT22;3790;48.806;9.140;2023-05-17T03:47:51;6.30;99.90
7498;DHT22;3790;48.806;9.140;2023-05-17T03:52:51;6.10;99.90
7498;DHT22;3790;48.806;9.140;2023-05-17T03:57:52;6.10;99.90
7498;DHT22;3790;48.806;9.140;2023-05-17T04:02:52;6.00;99.90
7498;DHT22;3790;48.806;9.140;2023-05-17T04:07:53;6.00;99.90
7498;DHT22;3790;48.806;9.140;2023-05-17T04:12:54;6.00;99.90
7498;DHT22;3790;48.806;9.140;2023-05-17T04:17:54;5.80;99.90
7498;DHT22;3790;48.806;9.140;2023-05-17T04:22:55;5.90;99.90
7498;DHT22;3790;48.806;9.140;2023-05-17T04:27:55;6.00;99.90
7498;DHT22;3790;48.806;9.140;2023-05-17T04:32:56;6.10;99.90
7498;DHT22;3790;48.806;9.140;2023-05-17T04:37:58;6.10;99.90
7498;DHT22;3790;48.806;9.140;2023-05-17T04:42:58;6.10;99.90
7498;DHT22;3790;48.806;9.140;2023-05-17T04:47:59;6.20;99.90
7498;DHT22;3790;48.806;9.140;2023-05-17T04:52:59;6.30;99.90
7498;DHT22;3790;48.806;9.140;2023-05-17T04:58:00;6.40;99.90
7498;DHT22;3790;48.806;9.140;2023-05-17T05:03:00;6.50;99.90
7498;DHT22;3790;48.806;9.140;2023-05-17T05:08:01;6.60;99.90
7498;DHT22;3790;48.806;9.140;2023-05-17T05:13:02;6.50;99.90
7498;DHT22;3790;48.806;9.140;2023-05-17T05:18:02;6.60;99.90
7498;DHT22;3790;48.806;9.140;2023-05-17T05:23:03;6.60;99.90
7498;DHT22;3790;48.806;9.140;2023-05-17T05:28:05;6.60;99.90
7498;DHT22;3790;48.806;9.140;2023-05-17T05:33:05;6.70;99.90
7498;DHT22;3790;48.806;9.140;2023-05-17T05:38:06;6.90;99.90
7498;DHT22;3790;48.806;9.140;2023-05-17T05:43:07;7.10;99.90
7498;DHT22;3790;48.806;9.140;2023-05-17T05:48:07;7.40;99.90
7498;DHT22;3790;48.806;9.140;2023-05-17T05:53:08;7.70;99.90
7498;DHT22;3790;48.806;9.140;2023-05-17T05:58:09;7.50;99.90
7498;DHT22;3790;48.806;9.140;2023-05-17T06:03:09;7.70;99.90
7498;DHT22;3790;48.806;9.140;2023-05-17T06:08:10;7.90;99.90
7498;DHT22;3790;48.806;9.140;2023-05-17T06:13:10;7.90;99.90
7498;DHT22;3790;48.806;9.140;2023-05-17T06:18:11;8.00;99.90
7498;DHT22;3790;48.806;9.140;2023-05-17T06:23:12;8.20;99.90
7498;DHT22;3790;48.806;9.140;2023-05-17T06:28:13;8.40;99.90
7498;DHT22;3790;48.806;9.140;2023-05-17T06:33:13;8.50;99.90
7498;DHT22;3790;48.806;9.140;2023-05-17T06:38:14;8.70;99.90
7498;DHT22;3790;48.806;9.140;2023-05-17T06:43:14;8.70;99.90
7498;DHT22;3790;48.806;9.140;2023-05-17T06:48:15;8.80;99.90
7498;DHT22;3790;48.806;9.140;2023-05-17T06:53:16;8.60;99.90
7498;DHT22;3790;48.806;9.140;2023-05-17T06:58:16;8.50;99.90
7498;DHT22;3790;48.806;9.140;2023-05-17T07:03:17;8.70;99.90
7498;DHT22;3790;48.806;9.140;2023-05-17T07:08:17;8.90;99.90
7498;DHT22;3790;48.806;9.140;2023-05-17T07:13:18;9.10;99.90
7498;DHT22;3790;48.806;9.140;2023-05-17T07:18:19;9.30;99.90
7498;DHT22;3790;48.806;9.140;2023-05-17T07:23:19;9.40;99.90
7498;DHT22;3790;48.806;9.140;2023-05-17T07:28:20;9.80;99.90
7498;DHT22;3790;48.806;9.140;2023-05-17T07:33:20;9.90;99.90
7498;DHT22;3790;48.806;9.140;2023-05-17T07:38:21;9.90;99.90
7498;DHT22;3790;48.806;9.140;2023-05-17T07:43:21;10.00;99.90
7498;DHT22;3790;48.806;9.140;2023-05-17T07:48:22;10.10;99.90
7498;DHT22;3790;48.806;9.140;2023-05-17T07:53:22;10.40;99.90
7498;DHT22;3790;48.806;9.140;2023-05-17T07:58:23;10.50;99.90
7498;DHT22;3790;48.806;9.140;2023-05-17T08:03:23;10.70;99.90
7498;DHT22;3790;48.806;9.140;2023-05-17T08:08:24;10.40;99.90
7498;DHT22;3790;48.806;9.140;2023-05-17T08:13:24;10.30;99.90
7498;DHT22;3790;48.806;9.140;2023-05-17T08:18:25;10.30;99.90
7498;DHT22;3790;48.806;9.140;2023-05-17T08:23:26;10.70;99.90
7498;DHT22;3790;48.806;9.140;2023-05-17T08:28:26;10.90;99.90
7498;DHT22;3790;48.806;9.140;2023-05-17T08:33:27;11.40;99.90
7498;DHT22;3790;48.806;9.140;2023-05-17T08:38:28;11.30;99.90
7498;DHT22;3790;48.806;9.140;2023-05-17T08:43:29;11.10;99.90
7498;DHT22;3790;48.806;9.140;2023-05-17T08:48:33;11.60;99.90
7498;DHT22;3790;48.806;9.140;2023-05-17T08:53:36;11.70;99.90
7498;DHT22;3790;48.806;9.140;2023-05-17T08:58:37;12.20;99.90
7498;DHT22;3790;48.806;9.140;2023-05-17T09:03:40;12.20;99.90
7498;DHT22;3790;48.806;9.140;2023-05-17T09:08:41;12.50;99.90
7498;DHT22;3790;48.806;9.140;2023-05-17T09:13:42;12.40;99.90
7498;DHT22;3790;48.806;9.140;2023-05-17T09:18:52;11.50;99.90
7498;DHT22;3790;48.806;9.140;2023-05-17T09:23:54;11.60;99.90
7498;DHT22;3790;48.806;9.140;2023-05-17T09:28:54;11.80;99.90
7498;DHT22;3790;48.806;9.140;2023-05-17T09:33:58;11.60;99.90
7498;DHT22;3790;48.806;9.140;2023-05-17T09:39:01;12.10;99.90
7498;DHT22;3790;48.806;9.140;2023-05-17T09:44:06;12.50;99.90
7498;DHT22;3790;48.806;9.140;2023-05-17T09:49:08;13.10;99.90
7498;DHT22;3790;48.806;9.140;2023-05-17T09:54:09;13.50;99.90
7498;DHT22;3790;48.806;9.140;2023-05-17T09:59:12;12.90;99.90
7498;DHT22;3790;48.806;9.140;2023-05-17T10:04:13;12.90;99.90
7498;DHT22;3790;48.806;9.140;2023-05-17T10:09:21;12.90;99.90
7498;DHT22;3790;48.806;9.140;2023-05-17T10:14:25;12.70;99.90
7498;DHT22;3790;48.806;9.140;2023-05-17T10:19:27;12.80;99.90
7498;DHT22;3790;48.806;9.140;2023-05-17T10:24:29;12.80;99.90
7498;DHT22;3790;48.806;9.140;2023-05-17T10:29:31;12.70;99.90
7498;DHT22;3790;48.806;9.140;2023-05-17T10:34:38;12.90;99.90
7498;DHT22;3790;48.806;9.140;2023-05-17T10:39:39;13.20;99.90
7498;DHT22;3790;48.806;9.140;2023-05-17T10:44:47;13.60;99.90
7498;DHT22;3790;48.806;9.140;2023-05-17T10:49:47;13.50;99.90
7498;DHT22;3790;48.806;9.140;2023-05-17T10:54:50;13.80;99.90
7498;DHT22;3790;48.806;9.140;2023-05-17T10:59:58;14.00;99.90
7498;DHT22;3790;48.806;9.140;2023-05-17T11:04:59;13.90;99.90
7498;DHT22;3790;48.806;9.140;2023-05-17T11:10:02;13.80;99.90
7498;DHT22;3790;48.806;9.140;2023-05-17T11:15:10;14.00;99.90
7498;DHT22;3790;48.806;9.140;2023-05-17T11:25:15;14.40;99.90
7498;DHT22;3790;48.806;9.140;2023-05-17T11:30:22;14.60;99.90
7498;DHT22;3790;48.806;9.140;2023-05-17T11:35:26;13.70;99.90
7498;DHT22;3790;48.806;9.140;2023-05-17T11:40:27;13.30;99.90
7498;DHT22;3790;48.806;9.140;2023-05-17T11:45:27;13.00;99.90
7498;DHT22;3790;48.806;9.140;2023-05-17T11:50:39;13.30;99.90
7498;DHT22;3790;48.806;9.140;2023-05-17T11:55:45;13.70;99.90
7498;DHT22;3790;48.806;9.140;2023-05-17T12:00:52;13.50;99.90
7498;DHT22;3790;48.806;9.140;2023-05-17T12:06:15;13.80;99.90
7498;DHT22;3790;48.806;9.140;2023-05-17T12:11:16;13.70;99.90
7498;DHT22;3790;48.806;9.140;2023-05-17T12:16:20;13.90;99.90
7498;DHT22;3790;48.806;9.140;2023-05-17T12:21:21;14.30;99.90
7498;DHT22;3790;48.806;9.140;2023-05-17T12:26:22;14.50;99.90
7498;DHT22;3790;48.806;9.140;2023-05-17T12:31:45;14.20;99.90
7498;DHT22;3790;48.806;9.140;2023-05-17T12:36:47;13.90;99.90
7498;DHT22;3790;48.806;9.140;2023-05-17T12:41:49;13.70;99.90
7498;DHT22;3790;48.806;9.140;2023-05-17T12:46:53;14.30;99.90
7498;DHT22;3790;48.806;9.140;2023-05-17T12:51:55;14.50;99.90
7498;DHT22;3790;48.806;9.140;2023-05-17T12:56:56;14.50;99.90
7498;DHT22;3790;48.806;9.140;2023-05-17T13:01:57;14.60;99.90
7498;DHT22;3790;48.806;9.140;2023-05-17T13:07:03;14.70;99.90
7498;DHT22;3790;48.806;9.140;2023-05-17T13:12:05;15.20;99.90
7498;DHT22;3790;48.806;9.140;2023-05-17T13:17:10;15.20;99.90
7498;DHT22;3790;48.806;9.140;2023-05-17T13:22:11;15.00;99.90
7498;DHT22;3790;48.806;9.140;2023-05-17T13:27:12;15.60;99.90
7498;DHT22;3790;48.806;9.140;2023-05-17T13:32:12;15.50;99.90
7498;DHT22;3790;48.806;9.140;2023-05-17T13:37:13;15.70;99.90
7498;DHT22;3790;48.806;9.140;2023-05-17T13:42:14;15.80;99.90
7498;DHT22;3790;48.806;9.140;2023-05-17T13:47:14;16.40;99.90
7498;DHT22;3790;48.806;9.140;2023-05-17T13:52:15;16.50;99.90
7498;DHT22;3790;48.806;9.140;2023-05-17T13:57:17;16.00;99.90
7498;DHT22;3790;48.806;9.140;2023-05-17T14:02:18;15.10;99.90
7498;DHT22;3790;48.806;9.140;2023-05-17T14:07:18;15.20;99.90
7498;DHT22;3790;48.806;9.140;2023-05-17T14:12:19;15.00;99.90
7498;DHT22;3790;48.806;9.140;2023-05-17T14:17:19;15.10;99.90
7498;DHT22;3790;48.806;9.140;2023-05-17T14:22:20;15.00;99.90
7498;DHT22;3790;48.806;9.140;2023-05-17T14:27:21;14.80;99.90
7498;DHT22;3790;48.806;9.140;2023-05-17T14:32:21;14.70;99.90
7498;DHT22;3790;48.806;9.140;2023-05-17T14:37:22;14.70;99.90
7498;DHT22;3790;48.806;9.140;2023-05-17T14:42:22;14.50;99.90
7498;DHT22;3790;48.806;9.140;2023-05-17T14:47:23;14.30;99.90
7498;DHT22;3790;48.806;9.140;2023-05-17T14:52:23;14.10;99.90
7498;DHT22;3790;48.806;9.140;2023-05-17T14:57:24;13.70;99.90
7498;DHT22;3790;48.806;9.140;2023-05-17T15:02:27;13.40;99.90
7498;DHT22;3790;48.806;9.140;2023-05-17T15:07:28;13.10;99.90
7498;DHT22;3790;48.806;9.140;2023-05-17T15:12:29;13.00;99.90
7498;DHT22;3790;48.806;9.140;2023-05-17T15:17:29;12.80;99.90
7498;DHT22;3790;48.806;9.140;2023-05-17T15:22:30;12.90;99.90
7498;DHT22;3790;48.806;9.140;2023-05-17T15:27:31;12.90;99.90
7498;DHT22;3790;48.806;9.140;2023-05-17T15:32:32;13.10;99.90
7498;DHT22;3790;48.806;9.140;2023-05-17T15:37:33;13.40;99.90
7498;DHT22;3790;48.806;9.140;2023-05-17T15:42:36;14.20;99.90
7498;DHT22;3790;48.806;9.140;2023-05-17T15:47:37;14.70;99.90
7498;DHT22;3790;48.806;9.140;2023-05-17T15:52:38;15.40;99.90
7498;DHT22;3790;48.806;9.140;2023-05-17T15:57:42;15.20;99.90
7498;DHT22;3790;48.806;9.140;2023-05-17T16:02:42;15.30;99.90
7498;DHT22;3790;48.806;9.140;2023-05-17T16:07:43;15.80;99.90
7498;DHT22;3790;48.806;9.140;2023-05-17T16:12:43;17.90;99.90
7498;DHT22;3790;48.806;9.140;2023-05-17T16:17:47;18.90;99.90
7498;DHT22;3790;48.806;9.140;2023-05-17T16:22:50;19.80;98.80
7498;DHT22;3790;48.806;9.140;2023-05-17T16:27:52;19.10;97.40
7498;DHT22;3790;48.806;9.140;2023-05-17T16:32:53;18.10;99.20
7498;DHT22;3790;48.806;9.140;2023-05-17T16:37:54;18.50;98.30
7498;DHT22;3790;48.806;9.140;2023-05-17T16:42:54;17.20;98.70
7498;DHT22;3790;48.806;9.140;2023-05-17T16:47:55;15.70;99.90
7498;DHT22;3790;48.806;9.140;2023-05-17T16:52:55;15.70;99.90
7498;DHT22;3790;48.806;9.140;2023-05-17T16:57:56;16.70;99.70
7498;DHT22;3790;48.806;9.140;2023-05-17T17:02:57;16.80;99.90
7498;DHT22;3790;48.806;9.140;2023-05-17T17:07:58;17.00;99.10
7498;DHT22;3790;48.806;9.140;2023-05-17T17:12:59;17.80;98.30
7498;DHT22;3790;48.806;9.140;2023-05-17T17:18:02;18.70;97.10
7498;DHT22;3790;48.806;9.140;2023-05-17T17:23:02;19.20;95.40
7498;DHT22;3790;48.806;9.140;2023-05-17T17:28:03;18.90;95.10
7498;DHT22;3790;48.806;9.140;2023-05-17T17:33:04;19.10;94.40
7498;DHT22;3790;48.806;9.140;2023-05-17T17:38:04;18.50;95.50
7498;DHT22;3790;48.806;9.140;2023-05-17T17:43:05;18.00;95.70
7498;DHT22;3790;48.806;9.140;2023-05-17T17:48:06;17.10;96.30
7498;DHT22;3790;48.806;9.140;2023-05-17T17:53:06;16.40;97.60
7498;DHT22;3790;48.806;9.140;2023-05-17T17:58:07;15.80;98.30
7498;DHT22;3790;48.806;9.140;2023-05-17T18:03:07;15.70;99.50
7498;DHT22;3790;48.806;9.140;2023-05-17T18:08:08;15.80;99.90
7498;DHT22;3790;48.806;9.140;2023-05-17T18:13:09;15.50;99.90
7498;DHT22;3790;48.806;9.140;2023-05-17T18:18:09;15.10;99.90
7498;DHT22;3790;48.806;9.140;2023-05-17T18:23:10;15.00;99.90
7498;DHT22;3790;48.806;9.140;2023-05-17T18:28:10;14.70;99.90
7498;DHT22;3790;48.806;9.140;2023-05-17T18:33:11;14.40;99.90
7498;DHT22;3790;48.806;9.140;2023-05-17T18:38:11;14.00;99.90
7498;DHT22;3790;48.806;9.140;2023-05-17T18:43:12;13.90;99.90
7498;DHT22;3790;48.806;9.140;2023-05-17T18:48:12;13.70;99.90
7498;DHT22;3790;48.806;9.140;2023-05-17T18:53:13;13.40;99.90
7498;DHT22;3790;48.806;9.140;2023-05-17T18:58:14;13.10;99.90
7498;DHT22;3790;48.806;9.140;2023-05-17T19:03:14;12.80;99.90
7498;DHT22;3790;48.806;9.140;2023-05-17T19:08:15;12.50;99.90
7498;DHT22;3790;48.806;9.140;2023-05-17T19:13:15;12.20;99.90
7498;DHT22;3790;48.806;9.140;2023-05-17T19:18:16;11.90;99.90
7498;DHT22;3790;48.806;9.140;2023-05-17T19:23:16;11.70;99.90
7498;DHT22;3790;48.806;9.140;2023-05-17T19:28:17;11.50;99.90
7498;DHT22;3790;48.806;9.140;2023-05-17T19:33:17;11.40;99.90
7498;DHT22;3790;48.806;9.140;2023-05-17T19:38:18;11.20;99.90
7498;DHT22;3790;48.806;9.140;2023-05-17T19:43:18;11.00;99.90
7498;DHT22;3790;48.806;9.140;2023-05-17T19:48:19;10.90;99.90
7498;DHT22;3790;48.806;9.140;2023-05-17T19:53:19;10.80;99.90
7498;DHT22;3790;48.806;9.140;2023-05-17T19:58:21;10.60;99.90
7498;DHT22;3790;48.806;9.140;2023-05-17T20:03:23;10.50;99.90
7498;DHT22;3790;48.806;9.140;2023-05-17T20:08:23;10.40;99.90
7498;DHT22;3790;48.806;9.140;2023-05-17T20:13:24;10.30;99.90
7498;DHT22;3790;48.806;9.140;2023-05-17T20:18:27;10.20;99.90
7498;DHT22;3790;48.806;9.140;2023-05-17T20:23:29;10.10;99.90
7498;DHT22;3790;48.806;9.140;2023-05-17T20:28:30;10.00;99.90
7498;DHT22;3790;48.806;9.140;2023-05-17T20:33:30;9.90;99.90
7498;DHT22;3790;48.806;9.140;2023-05-17T20:38:31;9.70;99.90
7498;DHT22;3790;48.806;9.140;2023-05-17T20:43:32;9.70;99.90
7498;DHT22;3790;48.806;9.140;2023-05-17T20:48:33;9.70;99.90
7498;DHT22;3790;48.806;9.140;2023-05-17T20:53:34;9.60;99.90
7498;DHT22;3790;48.806;9.140;2023-05-17T20:58:35;9.60;99.90
7498;DHT22;3790;48.806;9.140;2023-05-17T21:03:36;9.60;99.90
7498;DHT22;3790;48.806;9.140;2023-05-17T21:08:38;9.50;99.90
7498;DHT22;3790;48.806;9.140;2023-05-17T21:13:39;9.50;99.90
7498;DHT22;3790;48.806;9.140;2023-05-17T21:18:40;9.40;99.90
7498;DHT22;3790;48.806;9.140;2023-05-17T21:23:40;9.30;99.90
7498;DHT22;3790;48.806;9.140;2023-05-17T21:28:41;9.20;99.90
7498;DHT22;3790;48.806;9.140;2023-05-17T21:33:41;9.10;99.90
7498;DHT22;3790;48.806;9.140;2023-05-17T21:38:42;8.90;99.90
7498;DHT22;3790;48.806;9.140;2023-05-17T21:43:43;8.80;99.90
7498;DHT22;3790;48.806;9.140;2023-05-17T21:48:43;8.60;99.90
7498;DHT22;3790;48.806;9.140;2023-05-17T21:53:44;8.60;99.90
7498;DHT22;3790;48.806;9.140;2023-05-17T21:58:44;8.50;99.90
7498;DHT22;3790;48.806;9.140;2023-05-17T22:03:45;8.30;99.90
7498;DHT22;3790;48.806;9.140;2023-05-17T22:08:46;8.30;99.90
7498;DHT22;3790;48.806;9.140;2023-05-17T22:13:50;8.30;99.90
7498;DHT22;3790;48.806;9.140;2023-05-17T22:18:51;8.30;99.90
7498;DHT22;3790;48.806;9.140;2023-05-17T22:23:52;8.20;99.90
7498;DHT22;3790;48.806;9.140;2023-05-17T22:28:52;8.20;99.90
7498;DHT22;3790;48.806;9.140;2023-05-17T22:33:56;8.20;99.90
7498;DHT22;3790;48.806;9.140;2023-05-17T22:38:57;8.20;99.90
7498;DHT22;3790;48.806;9.140;2023-05-17T22:43:58;8.10;99.90
7498;DHT22;3790;48.806;9.140;2023-05-17T22:48:58;7.90;99.90
7498;DHT22;3790;48.806;9.140;2023-05-17T22:53:59;7.80;99.90
7498;DHT22;3790;48.806;9.140;2023-05-17T22:59:00;7.70;99.90
7498;DHT22;3790;48.806;9.140;2023-05-17T23:04:00;7.60;99.90
7498;DHT22;3790;48.806;9.140;2023-05-17T23:09:01;7.40;99.90
7498;DHT22;3790;48.806;9.140;2023-05-17T23:14:02;7.30;99.90
7498;DHT22;3790;48.806;9.140;2023-05-17T23:19:03;7.20;99.90
7498;DHT22;3790;48.806;9.140;2023-05-17T23:24:04;7.30;99.90
7498;DHT22;3790;48.806;9.140;2023-05-17T23:29:04;7.30;99.90
7498;DHT22;3790;48.806;9.140;2023-05-17T23:34:05;7.20;99.90
7498;DHT22;3790;48.806;9.140;2023-05-17T23:39:06;7.30;99.90
7498;DHT22;3790;48.806;9.140;2023-05-17T23:44:07;7.10;99.90
7498;DHT22;3790;48.806;9.140;2023-05-17T23:49:08;7.00;99.90
7498;DHT22;3790;48.806;9.140;2023-05-17T23:54:09;7.00;99.90
7498;DHT22;3790;48.806;9.140;2023-05-17T23:59:11;6.90;99.90
